sensor_id;sensor_type;location;lat;lon;timestamp;pressure;altitude;pressure_sealevel;temperature;humidity
64862;BME280;62652;42.274;-71.436;2023-03-14T00:00:01;100510.0;;;4.777777777777779;unknown
64862;BME280;62652;42.274;-71.436;2023-03-14T00:01:07;100510.0;;;4.722222222222222;unknown
64862;BME280;62652;42.274;-71.436;2023-03-14T00:02:00;100510.0;;;4.722222222222222;unknown
64862;BME280;62652;42.274;-71.436;2023-03-14T00:03:01;100500.0;;;4.777777777777779;unknown
64862;BME280;62652;42.274;-71.436;2023-03-14T00:04:04;100500.0;;;4.777777777777779;unknown
64862;BME280;62652;42.274;-71.436;2023-03-14T00:05:01;100500.0;;;4.722222222222222;unknown
64862;BME280;62652;42.274;-71.436;2023-03-14T00:06:03;100510.0;;;4.722222222222222;unknown
64862;BME280;62652;42.274;-71.436;2023-03-14T00:07:00;100500.0;;;4.722222222222222;unknown
64862;BME280;62652;42.274;-71.436;2023-03-14T00:08:01;100510.0;;;4.61111111111111;unknown
64862;BME280;62652;42.274;-71.436;2023-03-14T00:09:00;100500.0;;;4.61111111111111;unknown
64862;BME280;62652;42.274;-71.436;2023-03-14T00:10:01;100500.0;;;4.61111111111111;unknown
64862;BME280;62652;42.274;-71.436;2023-03-14T00:11:05;100500.0;;;4.61111111111111;unknown
64862;BME280;62652;42.274;-71.436;2023-03-14T00:12:01;100500.0;;;4.61111111111111;unknown
64862;BME280;62652;42.274;-71.436;2023-03-14T00:13:01;100500.0;;;4.722222222222222;unknown
64862;BME280;62652;42.274;-71.436;2023-03-14T00:14:00;100490.0;;;4.722222222222222;unknown
64862;BME280;62652;42.274;-71.436;2023-03-14T00:15:01;100500.0;;;4.722222222222222;unknown
64862;BME280;62652;42.274;-71.436;2023-03-14T00:16:02;100490.0;;;4.61111111111111;unknown
64862;BME280;62652;42.274;-71.436;2023-03-14T00:17:00;100490.0;;;4.61111111111111;unknown
64862;BME280;62652;42.274;-71.436;2023-03-14T00:18:01;100490.0;;;4.61111111111111;unknown
64862;BME280;62652;42.274;-71.436;2023-03-14T00:19:01;100490.0;;;4.61111111111111;unknown
64862;BME280;62652;42.274;-71.436;2023-03-14T00:20:01;100490.0;;;4.61111111111111;unknown
64862;BME280;62652;42.274;-71.436;2023-03-14T00:21:02;100490.0;;;4.61111111111111;unknown
64862;BME280;62652;42.274;-71.436;2023-03-14T00:22:01;100490.0;;;4.61111111111111;unknown
64862;BME280;62652;42.274;-71.436;2023-03-14T00:23:00;100480.0;;;4.61111111111111;unknown
64862;BME280;62652;42.274;-71.436;2023-03-14T00:24:00;100480.0;;;4.61111111111111;unknown
64862;BME280;62652;42.274;-71.436;2023-03-14T00:25:00;100480.0;;;4.61111111111111;unknown
64862;BME280;62652;42.274;-71.436;2023-03-14T00:26:02;100470.0;;;4.61111111111111;unknown
64862;BME280;62652;42.274;-71.436;2023-03-14T00:27:01;100480.0;;;4.61111111111111;unknown
64862;BME280;62652;42.274;-71.436;2023-03-14T00:28:00;100470.0;;;4.61111111111111;unknown
64862;BME280;62652;42.274;-71.436;2023-03-14T00:29:01;100470.0;;;4.61111111111111;unknown
64862;BME280;62652;42.274;-71.436;2023-03-14T00:30:00;100470.0;;;4.61111111111111;unknown
64862;BME280;62652;42.274;-71.436;2023-03-14T00:31:02;100480.0;;;4.61111111111111;unknown
64862;BME280;62652;42.274;-71.436;2023-03-14T00:32:00;100480.0;;;4.61111111111111;unknown
64862;BME280;62652;42.274;-71.436;2023-03-14T00:33:00;100480.0;;;4.61111111111111;unknown
64862;BME280;62652;42.274;-71.436;2023-03-14T00:34:00;100480.0;;;4.61111111111111;unknown
64862;BME280;62652;42.274;-71.436;2023-03-14T00:35:01;100480.0;;;4.61111111111111;unknown
64862;BME280;62652;42.274;-71.436;2023-03-14T00:36:03;100480.0;;;4.61111111111111;unknown
64862;BME280;62652;42.274;-71.436;2023-03-14T00:37:00;100480.0;;;4.61111111111111;unknown
64862;BME280;62652;42.274;-71.436;2023-03-14T00:38:01;100480.0;;;4.61111111111111;unknown
64862;BME280;62652;42.274;-71.436;2023-03-14T00:39:00;100470.0;;;4.61111111111111;unknown
64862;BME280;62652;42.274;-71.436;2023-03-14T00:40:00;100480.0;;;4.61111111111111;unknown
64862;BME280;62652;42.274;-71.436;2023-03-14T00:41:03;100470.0;;;4.500000000000001;unknown
64862;BME280;62652;42.274;-71.436;2023-03-14T00:42:00;100470.0;;;4.500000000000001;unknown
64862;BME280;62652;42.274;-71.436;2023-03-14T00:43:01;100470.0;;;4.500000000000001;unknown
64862;BME280;62652;42.274;-71.436;2023-03-14T00:44:00;100460.0;;;4.500000000000001;unknown
64862;BME280;62652;42.274;-71.436;2023-03-14T00:45:01;100460.0;;;4.500000000000001;unknown
64862;BME280;62652;42.274;-71.436;2023-03-14T00:46:00;100460.0;;;4.500000000000001;unknown
64862;BME280;62652;42.274;-71.436;2023-03-14T00:47:00;100460.0;;;4.500000000000001;unknown
64862;BME280;62652;42.274;-71.436;2023-03-14T00:48:01;100460.0;;;4.500000000000001;unknown
64862;BME280;62652;42.274;-71.436;2023-03-14T00:49:01;100460.0;;;4.500000000000001;unknown
64862;BME280;62652;42.274;-71.436;2023-03-14T00:50:00;100460.0;;;4.500000000000001;unknown
64862;BME280;62652;42.274;-71.436;2023-03-14T00:51:01;100450.0;;;4.500000000000001;unknown
64862;BME280;62652;42.274;-71.436;2023-03-14T00:52:00;100460.0;;;4.500000000000001;unknown
64862;BME280;62652;42.274;-71.436;2023-03-14T00:53:01;100460.0;;;4.500000000000001;unknown
64862;BME280;62652;42.274;-71.436;2023-03-14T00:54:01;100450.0;;;4.500000000000001;unknown
64862;BME280;62652;42.274;-71.436;2023-03-14T00:55:00;100460.0;;;4.500000000000001;unknown
64862;BME280;62652;42.274;-71.436;2023-03-14T00:56:03;100460.0;;;4.388888888888888;unknown
64862;BME280;62652;42.274;-71.436;2023-03-14T00:57:00;100460.0;;;4.388888888888888;unknown
64862;BME280;62652;42.274;-71.436;2023-03-14T00:58:00;100460.0;;;4.388888888888888;unknown
64862;BME280;62652;42.274;-71.436;2023-03-14T00:59:01;100460.0;;;4.388888888888888;unknown
64862;BME280;62652;42.274;-71.436;2023-03-14T01:00:01;100460.0;;;4.388888888888888;unknown
64862;BME280;62652;42.274;-71.436;2023-03-14T01:01:06;100450.0;;;4.388888888888888;unknown
64862;BME280;62652;42.274;-71.436;2023-03-14T01:02:00;100450.0;;;4.388888888888888;unknown
64862;BME280;62652;42.274;-71.436;2023-03-14T01:03:00;100450.0;;;4.500000000000001;unknown
64862;BME280;62652;42.274;-71.436;2023-03-14T01:04:01;100440.0;;;4.500000000000001;unknown
64862;BME280;62652;42.274;-71.436;2023-03-14T01:05:00;100440.0;;;4.500000000000001;unknown
64862;BME280;62652;42.274;-71.436;2023-03-14T01:06:11;100440.0;;;4.500000000000001;unknown
64862;BME280;62652;42.274;-71.436;2023-03-14T01:07:01;100440.0;;;4.500000000000001;unknown
64862;BME280;62652;42.274;-71.436;2023-03-14T01:08:01;100440.0;;;4.388888888888888;unknown
64862;BME280;62652;42.274;-71.436;2023-03-14T01:09:00;100430.0;;;4.500000000000001;unknown
64862;BME280;62652;42.274;-71.436;2023-03-14T01:10:00;100430.0;;;4.388888888888888;unknown
64862;BME280;62652;42.274;-71.436;2023-03-14T01:11:04;100440.0;;;4.388888888888888;unknown
64862;BME280;62652;42.274;-71.436;2023-03-14T01:12:01;100440.0;;;4.388888888888888;unknown
64862;BME280;62652;42.274;-71.436;2023-03-14T01:13:01;100430.0;;;4.388888888888888;unknown
64862;BME280;62652;42.274;-71.436;2023-03-14T01:14:02;100430.0;;;4.388888888888888;unknown
64862;BME280;62652;42.274;-71.436;2023-03-14T01:15:00;100430.0;;;4.388888888888888;unknown
64862;BME280;62652;42.274;-71.436;2023-03-14T01:16:02;100440.0;;;4.388888888888888;unknown
64862;BME280;62652;42.274;-71.436;2023-03-14T01:17:01;100430.0;;;4.388888888888888;unknown
64862;BME280;62652;42.274;-71.436;2023-03-14T01:18:00;100430.0;;;4.500000000000001;unknown
64862;BME280;62652;42.274;-71.436;2023-03-14T01:19:01;100440.0;;;4.388888888888888;unknown
64862;BME280;62652;42.274;-71.436;2023-03-14T01:20:01;100430.0;;;4.500000000000001;unknown
64862;BME280;62652;42.274;-71.436;2023-03-14T01:21:01;100430.0;;;4.500000000000001;unknown
64862;BME280;62652;42.274;-71.436;2023-03-14T01:22:01;100440.0;;;4.500000000000001;unknown
64862;BME280;62652;42.274;-71.436;2023-03-14T01:23:00;100440.0;;;4.500000000000001;unknown
64862;BME280;62652;42.274;-71.436;2023-03-14T01:24:03;100430.0;;;4.500000000000001;unknown
64862;BME280;62652;42.274;-71.436;2023-03-14T01:25:01;100430.0;;;4.500000000000001;unknown
64862;BME280;62652;42.274;-71.436;2023-03-14T01:26:00;100440.0;;;4.500000000000001;unknown
64862;BME280;62652;42.274;-71.436;2023-03-14T01:27:01;100440.0;;;4.500000000000001;unknown
64862;BME280;62652;42.274;-71.436;2023-03-14T01:28:00;100440.0;;;4.500000000000001;unknown
64862;BME280;62652;42.274;-71.436;2023-03-14T01:29:01;100440.0;;;4.500000000000001;unknown
64862;BME280;62652;42.274;-71.436;2023-03-14T01:30:00;100440.0;;;4.500000000000001;unknown
64862;BME280;62652;42.274;-71.436;2023-03-14T01:31:03;100440.0;;;4.500000000000001;unknown
64862;BME280;62652;42.274;-71.436;2023-03-14T01:32:00;100430.0;;;4.500000000000001;unknown
64862;BME280;62652;42.274;-71.436;2023-03-14T01:33:01;100440.0;;;4.61111111111111;unknown
64862;BME280;62652;42.274;-71.436;2023-03-14T01:34:01;100440.0;;;4.61111111111111;unknown
64862;BME280;62652;42.274;-71.436;2023-03-14T01:35:00;100440.0;;;4.61111111111111;unknown
64862;BME280;62652;42.274;-71.436;2023-03-14T01:36:01;100440.0;;;4.61111111111111;unknown
64862;BME280;62652;42.274;-71.436;2023-03-14T01:37:01;100430.0;;;4.61111111111111;unknown
64862;BME280;62652;42.274;-71.436;2023-03-14T01:38:00;100430.0;;;4.500000000000001;unknown
64862;BME280;62652;42.274;-71.436;2023-03-14T01:39:01;100430.0;;;4.500000000000001;unknown
64862;BME280;62652;42.274;-71.436;2023-03-14T01:40:01;100430.0;;;4.61111111111111;unknown
64862;BME280;62652;42.274;-71.436;2023-03-14T01:41:01;100430.0;;;4.500000000000001;unknown
64862;BME280;62652;42.274;-71.436;2023-03-14T01:42:01;100420.0;;;4.61111111111111;unknown
64862;BME280;62652;42.274;-71.436;2023-03-14T01:43:12;100430.0;;;4.500000000000001;unknown
64862;BME280;62652;42.274;-71.436;2023-03-14T01:44:01;100430.0;;;4.500000000000001;unknown
64862;BME280;62652;42.274;-71.436;2023-03-14T01:45:01;100430.0;;;4.500000000000001;unknown
64862;BME280;62652;42.274;-71.436;2023-03-14T01:46:14;100420.0;;;4.500000000000001;unknown
64862;BME280;62652;42.274;-71.436;2023-03-14T01:47:01;100420.0;;;4.61111111111111;unknown
64862;BME280;62652;42.274;-71.436;2023-03-14T01:48:00;100420.0;;;4.500000000000001;unknown
64862;BME280;62652;42.274;-71.436;2023-03-14T01:49:06;100420.0;;;4.500000000000001;unknown
64862;BME280;62652;42.274;-71.436;2023-03-14T01:50:04;100420.0;;;4.500000000000001;unknown
64862;BME280;62652;42.274;-71.436;2023-03-14T01:51:02;100420.0;;;4.61111111111111;unknown
64862;BME280;62652;42.274;-71.436;2023-03-14T01:52:05;100420.0;;;4.500000000000001;unknown
64862;BME280;62652;42.274;-71.436;2023-03-14T01:53:00;100420.0;;;4.500000000000001;unknown
64862;BME280;62652;42.274;-71.436;2023-03-14T01:54:06;100410.0;;;4.61111111111111;unknown
64862;BME280;62652;42.274;-71.436;2023-03-14T01:55:04;100410.0;;;4.500000000000001;unknown
64862;BME280;62652;42.274;-71.436;2023-03-14T01:56:01;100420.0;;;4.500000000000001;unknown
64862;BME280;62652;42.274;-71.436;2023-03-14T01:57:05;100420.0;;;4.500000000000001;unknown
64862;BME280;62652;42.274;-71.436;2023-03-14T01:58:03;100410.0;;;4.61111111111111;unknown
64862;BME280;62652;42.274;-71.436;2023-03-14T01:59:04;100410.0;;;4.61111111111111;unknown
64862;BME280;62652;42.274;-71.436;2023-03-14T02:00:05;100410.0;;;4.61111111111111;unknown
64862;BME280;62652;42.274;-71.436;2023-03-14T02:01:02;100400.0;;;4.61111111111111;unknown
64862;BME280;62652;42.274;-71.436;2023-03-14T02:02:02;100400.0;;;4.61111111111111;unknown
64862;BME280;62652;42.274;-71.436;2023-03-14T02:03:05;100400.0;;;4.61111111111111;unknown
64862;BME280;62652;42.274;-71.436;2023-03-14T02:04:03;100400.0;;;4.722222222222222;unknown
64862;BME280;62652;42.274;-71.436;2023-03-14T02:05:02;100400.0;;;4.61111111111111;unknown
64862;BME280;62652;42.274;-71.436;2023-03-14T02:06:06;100400.0;;;4.61111111111111;unknown
64862;BME280;62652;42.274;-71.436;2023-03-14T02:07:09;100400.0;;;4.61111111111111;unknown
64862;BME280;62652;42.274;-71.436;2023-03-14T02:08:02;100400.0;;;4.61111111111111;unknown
64862;BME280;62652;42.274;-71.436;2023-03-14T02:09:01;100390.0;;;4.61111111111111;unknown
64862;BME280;62652;42.274;-71.436;2023-03-14T02:10:02;100390.0;;;4.61111111111111;unknown
64862;BME280;62652;42.274;-71.436;2023-03-14T02:11:00;100380.0;;;4.722222222222222;unknown
64862;BME280;62652;42.274;-71.436;2023-03-14T02:12:01;100380.0;;;4.61111111111111;unknown
64862;BME280;62652;42.274;-71.436;2023-03-14T02:13:03;100380.0;;;4.722222222222222;unknown
64862;BME280;62652;42.274;-71.436;2023-03-14T02:14:02;100380.0;;;4.61111111111111;unknown
64862;BME280;62652;42.274;-71.436;2023-03-14T02:15:01;100380.0;;;4.722222222222222;unknown
64862;BME280;62652;42.274;-71.436;2023-03-14T02:16:00;100380.0;;;4.722222222222222;unknown
64862;BME280;62652;42.274;-71.436;2023-03-14T02:17:02;100380.0;;;4.722222222222222;unknown
64862;BME280;62652;42.274;-71.436;2023-03-14T02:18:02;100370.0;;;4.61111111111111;unknown
64862;BME280;62652;42.274;-71.436;2023-03-14T02:19:01;100370.0;;;4.61111111111111;unknown
64862;BME280;62652;42.274;-71.436;2023-03-14T02:20:09;100370.0;;;4.500000000000001;unknown
64862;BME280;62652;42.274;-71.436;2023-03-14T02:21:05;100370.0;;;4.500000000000001;unknown
64862;BME280;62652;42.274;-71.436;2023-03-14T02:22:05;100370.0;;;4.500000000000001;unknown
64862;BME280;62652;42.274;-71.436;2023-03-14T02:23:01;100370.0;;;4.61111111111111;unknown
64862;BME280;62652;42.274;-71.436;2023-03-14T02:24:08;100370.0;;;4.500000000000001;unknown
64862;BME280;62652;42.274;-71.436;2023-03-14T02:25:06;100370.0;;;4.500000000000001;unknown
64862;BME280;62652;42.274;-71.436;2023-03-14T02:26:03;100370.0;;;4.500000000000001;unknown
64862;BME280;62652;42.274;-71.436;2023-03-14T02:27:05;100370.0;;;4.61111111111111;unknown
64862;BME280;62652;42.274;-71.436;2023-03-14T02:28:01;100360.0;;;4.61111111111111;unknown
64862;BME280;62652;42.274;-71.436;2023-03-14T02:29:00;100360.0;;;4.500000000000001;unknown
64862;BME280;62652;42.274;-71.436;2023-03-14T02:30:03;100360.0;;;4.500000000000001;unknown
64862;BME280;62652;42.274;-71.436;2023-03-14T02:31:01;100360.0;;;4.388888888888888;unknown
64862;BME280;62652;42.274;-71.436;2023-03-14T02:32:01;100360.0;;;4.500000000000001;unknown
64862;BME280;62652;42.274;-71.436;2023-03-14T02:33:03;100360.0;;;4.500000000000001;unknown
64862;BME280;62652;42.274;-71.436;2023-03-14T02:34:02;100360.0;;;4.61111111111111;unknown
64862;BME280;62652;42.274;-71.436;2023-03-14T02:35:05;100360.0;;;4.61111111111111;unknown
64862;BME280;62652;42.274;-71.436;2023-03-14T02:36:03;100360.0;;;4.61111111111111;unknown
64862;BME280;62652;42.274;-71.436;2023-03-14T02:37:01;100360.0;;;4.61111111111111;unknown
64862;BME280;62652;42.274;-71.436;2023-03-14T02:38:05;100360.0;;;4.61111111111111;unknown
64862;BME280;62652;42.274;-71.436;2023-03-14T02:39:07;100360.0;;;4.61111111111111;unknown
64862;BME280;62652;42.274;-71.436;2023-03-14T02:40:01;100350.0;;;4.61111111111111;unknown
64862;BME280;62652;42.274;-71.436;2023-03-14T02:41:01;100350.0;;;4.61111111111111;unknown
64862;BME280;62652;42.274;-71.436;2023-03-14T02:42:01;100350.0;;;4.61111111111111;unknown
64862;BME280;62652;42.274;-71.436;2023-03-14T02:43:00;100350.0;;;4.61111111111111;unknown
64862;BME280;62652;42.274;-71.436;2023-03-14T02:44:01;100350.0;;;4.61111111111111;unknown
64862;BME280;62652;42.274;-71.436;2023-03-14T02:46:02;100340.0;;;4.722222222222222;unknown
64862;BME280;62652;42.274;-71.436;2023-03-14T02:47:01;100330.0;;;4.722222222222222;unknown
64862;BME280;62652;42.274;-71.436;2023-03-14T02:48:04;100330.0;;;4.61111111111111;unknown
64862;BME280;62652;42.274;-71.436;2023-03-14T02:49:03;100330.0;;;4.61111111111111;unknown
64862;BME280;62652;42.274;-71.436;2023-03-14T02:50:05;100330.0;;;4.61111111111111;unknown
64862;BME280;62652;42.274;-71.436;2023-03-14T02:51:01;100330.0;;;4.61111111111111;unknown
64862;BME280;62652;42.274;-71.436;2023-03-14T02:52:01;100320.0;;;4.500000000000001;unknown
64862;BME280;62652;42.274;-71.436;2023-03-14T02:53:01;100320.0;;;4.61111111111111;unknown
64862;BME280;62652;42.274;-71.436;2023-03-14T02:54:01;100320.0;;;4.61111111111111;unknown
64862;BME280;62652;42.274;-71.436;2023-03-14T02:55:00;100320.0;;;4.61111111111111;unknown
64862;BME280;62652;42.274;-71.436;2023-03-14T02:56:01;100320.0;;;4.61111111111111;unknown
64862;BME280;62652;42.274;-71.436;2023-03-14T02:57:02;100310.0;;;4.61111111111111;unknown
64862;BME280;62652;42.274;-71.436;2023-03-14T02:58:00;100310.0;;;4.61111111111111;unknown
64862;BME280;62652;42.274;-71.436;2023-03-14T02:59:02;100300.0;;;4.61111111111111;unknown
64862;BME280;62652;42.274;-71.436;2023-03-14T03:00:01;100300.0;;;4.61111111111111;unknown
64862;BME280;62652;42.274;-71.436;2023-03-14T03:01:01;100300.0;;;4.722222222222222;unknown
64862;BME280;62652;42.274;-71.436;2023-03-14T03:02:00;100300.0;;;4.61111111111111;unknown
64862;BME280;62652;42.274;-71.436;2023-03-14T03:03:01;100290.0;;;4.61111111111111;unknown
64862;BME280;62652;42.274;-71.436;2023-03-14T03:04:01;100280.0;;;4.61111111111111;unknown
64862;BME280;62652;42.274;-71.436;2023-03-14T03:05:01;100290.0;;;4.500000000000001;unknown
64862;BME280;62652;42.274;-71.436;2023-03-14T03:06:01;100290.0;;;4.500000000000001;unknown
64862;BME280;62652;42.274;-71.436;2023-03-14T03:07:01;100290.0;;;4.500000000000001;unknown
64862;BME280;62652;42.274;-71.436;2023-03-14T03:08:00;100290.0;;;4.500000000000001;unknown
64862;BME280;62652;42.274;-71.436;2023-03-14T03:09:01;100280.0;;;4.500000000000001;unknown
64862;BME280;62652;42.274;-71.436;2023-03-14T03:10:01;100280.0;;;4.61111111111111;unknown
64862;BME280;62652;42.274;-71.436;2023-03-14T03:11:01;100270.0;;;4.61111111111111;unknown
64862;BME280;62652;42.274;-71.436;2023-03-14T03:12:01;100270.0;;;4.500000000000001;unknown
64862;BME280;62652;42.274;-71.436;2023-03-14T03:13:00;100270.0;;;4.61111111111111;unknown
64862;BME280;62652;42.274;-71.436;2023-03-14T03:14:01;100270.0;;;4.500000000000001;unknown
64862;BME280;62652;42.274;-71.436;2023-03-14T03:15:00;100260.0;;;4.500000000000001;unknown
64862;BME280;62652;42.274;-71.436;2023-03-14T03:16:00;100260.0;;;4.61111111111111;unknown
64862;BME280;62652;42.274;-71.436;2023-03-14T03:17:00;100260.0;;;4.500000000000001;unknown
64862;BME280;62652;42.274;-71.436;2023-03-14T03:18:00;100260.0;;;4.500000000000001;unknown
64862;BME280;62652;42.274;-71.436;2023-03-14T03:19:00;100260.0;;;4.500000000000001;unknown
64862;BME280;62652;42.274;-71.436;2023-03-14T03:20:01;100260.0;;;4.500000000000001;unknown
64862;BME280;62652;42.274;-71.436;2023-03-14T03:21:01;100260.0;;;4.61111111111111;unknown
64862;BME280;62652;42.274;-71.436;2023-03-14T03:22:01;100260.0;;;4.61111111111111;unknown
64862;BME280;62652;42.274;-71.436;2023-03-14T03:23:01;100260.0;;;4.500000000000001;unknown
64862;BME280;62652;42.274;-71.436;2023-03-14T03:24:01;100260.0;;;4.500000000000001;unknown
64862;BME280;62652;42.274;-71.436;2023-03-14T03:25:00;100260.0;;;4.500000000000001;unknown
64862;BME280;62652;42.274;-71.436;2023-03-14T03:26:00;100260.0;;;4.500000000000001;unknown
64862;BME280;62652;42.274;-71.436;2023-03-14T03:27:01;100260.0;;;4.500000000000001;unknown
64862;BME280;62652;42.274;-71.436;2023-03-14T03:28:01;100260.0;;;4.500000000000001;unknown
64862;BME280;62652;42.274;-71.436;2023-03-14T03:29:01;100260.0;;;4.61111111111111;unknown
64862;BME280;62652;42.274;-71.436;2023-03-14T03:30:03;100250.0;;;4.500000000000001;unknown
64862;BME280;62652;42.274;-71.436;2023-03-14T03:31:06;100250.0;;;4.500000000000001;unknown
64862;BME280;62652;42.274;-71.436;2023-03-14T03:32:01;100250.0;;;4.500000000000001;unknown
64862;BME280;62652;42.274;-71.436;2023-03-14T03:33:01;100250.0;;;4.61111111111111;unknown
64862;BME280;62652;42.274;-71.436;2023-03-14T03:34:01;100250.0;;;4.500000000000001;unknown
64862;BME280;62652;42.274;-71.436;2023-03-14T03:35:03;100250.0;;;4.61111111111111;unknown
64862;BME280;62652;42.274;-71.436;2023-03-14T03:36:00;100240.0;;;4.61111111111111;unknown
64862;BME280;62652;42.274;-71.436;2023-03-14T03:37:00;100240.0;;;4.61111111111111;unknown
64862;BME280;62652;42.274;-71.436;2023-03-14T03:38:00;100240.0;;;4.500000000000001;unknown
64862;BME280;62652;42.274;-71.436;2023-03-14T03:39:01;100240.0;;;4.500000000000001;unknown
64862;BME280;62652;42.274;-71.436;2023-03-14T03:40:01;100240.0;;;4.61111111111111;unknown
64862;BME280;62652;42.274;-71.436;2023-03-14T03:41:04;100230.0;;;4.500000000000001;unknown
64862;BME280;62652;42.274;-71.436;2023-03-14T03:42:01;100230.0;;;4.388888888888888;unknown
64862;BME280;62652;42.274;-71.436;2023-03-14T03:43:00;100230.0;;;4.500000000000001;unknown
64862;BME280;62652;42.274;-71.436;2023-03-14T03:44:01;100230.0;;;4.500000000000001;unknown
64862;BME280;62652;42.274;-71.436;2023-03-14T03:45:01;100230.0;;;4.388888888888888;unknown
64862;BME280;62652;42.274;-71.436;2023-03-14T03:46:03;100230.0;;;4.388888888888888;unknown
64862;BME280;62652;42.274;-71.436;2023-03-14T03:47:00;100220.0;;;4.500000000000001;unknown
64862;BME280;62652;42.274;-71.436;2023-03-14T03:48:01;100230.0;;;4.500000000000001;unknown
64862;BME280;62652;42.274;-71.436;2023-03-14T03:49:01;100220.0;;;4.500000000000001;unknown
64862;BME280;62652;42.274;-71.436;2023-03-14T03:50:01;100220.0;;;4.61111111111111;unknown
64862;BME280;62652;42.274;-71.436;2023-03-14T03:51:01;100210.0;;;4.61111111111111;unknown
64862;BME280;62652;42.274;-71.436;2023-03-14T03:52:01;100220.0;;;4.61111111111111;unknown
64862;BME280;62652;42.274;-71.436;2023-03-14T03:53:01;100220.0;;;4.61111111111111;unknown
64862;BME280;62652;42.274;-71.436;2023-03-14T03:54:00;100220.0;;;4.61111111111111;unknown
64862;BME280;62652;42.274;-71.436;2023-03-14T03:55:00;100210.0;;;4.500000000000001;unknown
64862;BME280;62652;42.274;-71.436;2023-03-14T03:56:01;100210.0;;;4.500000000000001;unknown
64862;BME280;62652;42.274;-71.436;2023-03-14T03:57:01;100200.0;;;4.500000000000001;unknown
64862;BME280;62652;42.274;-71.436;2023-03-14T03:58:00;100210.0;;;4.500000000000001;unknown
64862;BME280;62652;42.274;-71.436;2023-03-14T03:59:01;100210.0;;;4.500000000000001;unknown
64862;BME280;62652;42.274;-71.436;2023-03-14T04:00:01;100210.0;;;4.500000000000001;unknown
64862;BME280;62652;42.274;-71.436;2023-03-14T04:01:00;100200.0;;;4.500000000000001;unknown
64862;BME280;62652;42.274;-71.436;2023-03-14T04:02:01;100200.0;;;4.388888888888888;unknown
64862;BME280;62652;42.274;-71.436;2023-03-14T04:03:00;100200.0;;;4.500000000000001;unknown
64862;BME280;62652;42.274;-71.436;2023-03-14T04:04:01;100210.0;;;4.61111111111111;unknown
64862;BME280;62652;42.274;-71.436;2023-03-14T04:05:00;100200.0;;;4.61111111111111;unknown
64862;BME280;62652;42.274;-71.436;2023-03-14T04:06:02;100200.0;;;4.61111111111111;unknown
64862;BME280;62652;42.274;-71.436;2023-03-14T04:07:01;100190.0;;;4.61111111111111;unknown
64862;BME280;62652;42.274;-71.436;2023-03-14T04:08:01;100190.0;;;4.61111111111111;unknown
64862;BME280;62652;42.274;-71.436;2023-03-14T04:09:01;100190.0;;;4.61111111111111;unknown
64862;BME280;62652;42.274;-71.436;2023-03-14T04:10:01;100190.0;;;4.500000000000001;unknown
64862;BME280;62652;42.274;-71.436;2023-03-14T04:11:02;100180.0;;;4.61111111111111;unknown
64862;BME280;62652;42.274;-71.436;2023-03-14T04:12:00;100180.0;;;4.61111111111111;unknown
64862;BME280;62652;42.274;-71.436;2023-03-14T04:13:01;100180.0;;;4.61111111111111;unknown
64862;BME280;62652;42.274;-71.436;2023-03-14T04:14:00;100180.0;;;4.61111111111111;unknown
64862;BME280;62652;42.274;-71.436;2023-03-14T04:15:00;100180.0;;;4.61111111111111;unknown
64862;BME280;62652;42.274;-71.436;2023-03-14T04:16:01;100170.0;;;4.61111111111111;unknown
64862;BME280;62652;42.274;-71.436;2023-03-14T04:17:01;100170.0;;;4.722222222222222;unknown
64862;BME280;62652;42.274;-71.436;2023-03-14T04:18:01;100170.0;;;4.61111111111111;unknown
64862;BME280;62652;42.274;-71.436;2023-03-14T04:19:01;100170.0;;;4.61111111111111;unknown
64862;BME280;62652;42.274;-71.436;2023-03-14T04:20:01;100170.0;;;4.61111111111111;unknown
64862;BME280;62652;42.274;-71.436;2023-03-14T04:21:00;100170.0;;;4.61111111111111;unknown
64862;BME280;62652;42.274;-71.436;2023-03-14T04:22:02;100160.0;;;4.61111111111111;unknown
64862;BME280;62652;42.274;-71.436;2023-03-14T04:23:01;100160.0;;;4.61111111111111;unknown